createdAt,value
2023-02-28T00:00:36.325Z,100424.29
2023-02-28T00:03:03.890Z,100420.31
2023-02-28T00:05:30.761Z,100422.75
2023-02-28T00:07:57.553Z,100428.82
2023-02-28T00:10:26.916Z,100429.17
2023-02-28T00:12:57.150Z,100430.77
2023-02-28T00:15:24.463Z,100433.20
2023-02-28T00:17:51.474Z,100430.99
2023-02-28T00:20:18.276Z,100436.38
2023-02-28T00:22:47.880Z,100437.78
2023-02-28T00:25:17.484Z,100434.40
2023-02-28T00:27:45.167Z,100430.31
2023-02-28T00:30:14.299Z,100435.06
2023-02-28T00:32:41.724Z,100434.06
2023-02-28T00:35:09.017Z,100431.13
2023-02-28T00:37:37.711Z,100431.49
2023-02-28T00:40:06.746Z,100432.54
2023-02-28T00:42:34.551Z,100431.69
2023-02-28T00:45:01.784Z,100429.48
2023-02-28T00:47:37.207Z,100424.33
2023-02-28T00:50:04.848Z,100423.52
2023-02-28T00:52:31.945Z,100422.80
2023-02-28T00:54:58.900Z,100425.14
2023-02-28T00:57:26.041Z,100427.17
2023-02-28T00:59:54.663Z,100431.14
2023-02-28T01:02:22.896Z,100432.45
2023-02-28T01:04:51.498Z,100426.84
2023-02-28T01:07:19.567Z,100430.43
2023-02-28T01:09:46.996Z,100428.91
2023-02-28T01:12:15.114Z,100426.86
2023-02-28T01:14:42.412Z,100425.34
2023-02-28T01:17:09.695Z,100426.10
2023-02-28T01:19:36.366Z,100427.00
2023-02-28T01:22:04.201Z,100433.05
2023-02-28T01:24:34.935Z,100437.69
2023-02-28T01:27:03.328Z,100437.53
2023-02-28T01:29:30.456Z,100438.55
2023-02-28T01:31:57.675Z,100435.95
2023-02-28T01:34:24.489Z,100438.90
2023-02-28T01:36:51.653Z,100437.89
2023-02-28T01:39:20.015Z,100432.91
2023-02-28T01:41:46.816Z,100434.77
2023-02-28T01:44:51.587Z,100439.59
2023-02-28T01:47:18.416Z,100439.61
2023-02-28T01:49:45.064Z,100439.81
2023-02-28T01:52:18.563Z,100439.83
2023-02-28T01:54:55.682Z,100444.32
2023-02-28T01:57:24.895Z,100440.23
2023-02-28T02:00:00.216Z,100443.41
2023-02-28T02:02:28.336Z,100440.83
2023-02-28T02:04:56.070Z,100444.91
2023-02-28T02:07:22.921Z,100439.70
2023-02-28T02:09:51.083Z,100443.16
2023-02-28T02:12:44.122Z,100444.09
2023-02-28T02:15:20.447Z,100449.49
2023-02-28T02:17:50.027Z,100451.48
2023-02-28T02:20:32.991Z,100451.54
2023-02-28T02:23:03.081Z,100450.05
2023-02-28T02:25:34.916Z,100453.81
2023-02-28T02:28:05.752Z,100454.95
2023-02-28T02:31:06.422Z,100458.17
2023-02-28T02:33:45.615Z,100461.55
2023-02-28T02:36:20.107Z,100465.73
2023-02-28T02:38:51.042Z,100466.96
2023-02-28T02:41:40.343Z,100466.63
2023-02-28T02:44:22.655Z,100466.70
2023-02-28T02:46:51.352Z,100469.54
2023-02-28T02:49:27.349Z,100466.48
2023-02-28T02:51:55.922Z,100469.05
2023-02-28T02:54:29.086Z,100472.51
2023-02-28T02:57:00.109Z,100477.52
2023-02-28T02:59:28.752Z,100480.63
2023-02-28T03:02:02.277Z,100484.19
2023-02-28T03:04:32.045Z,100485.86
2023-02-28T03:06:59.878Z,100484.20
2023-02-28T03:09:27.584Z,100483.58
2023-02-28T03:11:56.172Z,100484.06
2023-02-28T03:15:16.086Z,100484.90
2023-02-28T03:17:55.593Z,100483.91
2023-02-28T03:20:34.913Z,100490.31
2023-02-28T03:23:04.009Z,100495.87
2023-02-28T03:25:36.200Z,100495.05
2023-02-28T03:28:33.408Z,100500.95
2023-02-28T03:31:09.601Z,100501.98
2023-02-28T03:33:46.596Z,100505.42
2023-02-28T03:36:15.941Z,100504.91
2023-02-28T03:38:46.645Z,100504.73
2023-02-28T03:41:19.726Z,100509.23
2023-02-28T03:43:56.318Z,100509.79
2023-02-28T03:46:24.956Z,100511.91
2023-02-28T03:48:53.029Z,100508.67
2023-02-28T03:51:20.385Z,100510.48
2023-02-28T03:54:02.956Z,100513.48
2023-02-28T03:56:36.422Z,100511.27
2023-02-28T03:59:07.569Z,100512.33
2023-02-28T04:01:39.365Z,100510.80
2023-02-28T04:04:06.090Z,100509.79
2023-02-28T04:06:33.426Z,100512.61
2023-02-28T04:09:00.671Z,100517.12
2023-02-28T04:11:35.495Z,100518.87
2023-02-28T04:14:03.722Z,100512.68
2023-02-28T04:16:35.313Z,100509.94
2023-02-28T04:19:05.355Z,100509.13
2023-02-28T04:21:34.338Z,100509.48
2023-02-28T04:24:06.497Z,100512.43
2023-02-28T04:26:35.791Z,100512.97
2023-02-28T04:29:04.128Z,100513.84
2023-02-28T04:31:32.097Z,100511.64
2023-02-28T04:33:59.292Z,100516.50
2023-02-28T04:36:26.340Z,100518.25
2023-02-28T04:38:55.123Z,100521.88
2023-02-28T04:41:23.368Z,100521.58
2023-02-28T04:43:52.456Z,100529.62
2023-02-28T04:46:20.472Z,100531.80
2023-02-28T04:48:47.263Z,100536.18
2023-02-28T04:51:14.929Z,100533.79
2023-02-28T04:53:44.158Z,100533.79
2023-02-28T04:56:13.216Z,100533.48
2023-02-28T04:58:40.102Z,100539.02
2023-02-28T05:01:25.111Z,100538.20
2023-02-28T05:03:52.484Z,100534.60
2023-02-28T05:06:22.149Z,100531.52
2023-02-28T05:08:49.085Z,100535.82
2023-02-28T05:11:22.572Z,100533.23
2023-02-28T05:13:49.772Z,100532.36
2023-02-28T05:16:16.813Z,100535.34
2023-02-28T05:18:47.483Z,100538.98
2023-02-28T05:21:26.489Z,100545.00
2023-02-28T05:23:53.444Z,100544.85
2023-02-28T05:26:20.254Z,100546.80
2023-02-28T05:28:47.273Z,100546.99
2023-02-28T05:31:14.964Z,100543.36
2023-02-28T05:33:41.684Z,100545.41
2023-02-28T05:36:08.727Z,100544.46
2023-02-28T05:38:37.780Z,100544.41
2023-02-28T05:41:09.389Z,100543.84
2023-02-28T05:43:37.531Z,100546.55
2023-02-28T05:46:06.150Z,100546.23
2023-02-28T05:48:35.780Z,100553.81
2023-02-28T05:51:03.086Z,100553.89
2023-02-28T05:53:31.194Z,100556.33
2023-02-28T05:55:57.917Z,100557.38
2023-02-28T05:58:29.478Z,100560.15
2023-02-28T06:00:57.544Z,100562.94
2023-02-28T06:03:25.363Z,100565.08
2023-02-28T06:05:52.279Z,100562.39
2023-02-28T06:08:19.318Z,100562.84
2023-02-28T06:10:46.411Z,100561.91
2023-02-28T06:13:13.268Z,100566.83
2023-02-28T06:15:40.046Z,100571.19
2023-02-28T06:18:07.124Z,100572.91
2023-02-28T06:20:35.033Z,100574.48
2023-02-28T06:23:01.802Z,100575.24
2023-02-28T06:25:29.339Z,100574.39
2023-02-28T06:27:56.426Z,100573.70
2023-02-28T06:30:25.778Z,100573.38
2023-02-28T06:32:53.102Z,100573.02
2023-02-28T06:35:20.499Z,100571.65
2023-02-28T06:37:47.711Z,100569.54
2023-02-28T06:40:14.992Z,100573.73
2023-02-28T06:42:43.205Z,100574.40
2023-02-28T06:45:11.089Z,100572.55
2023-02-28T06:47:39.703Z,100569.42
2023-02-28T06:50:07.611Z,100568.06
2023-02-28T06:52:36.579Z,100570.19
2023-02-28T06:55:07.242Z,100564.55
2023-02-28T06:57:34.810Z,100563.38
2023-02-28T07:00:03.524Z,100561.27
2023-02-28T07:02:32.176Z,100558.68
2023-02-28T07:04:59.107Z,100557.90
2023-02-28T07:07:26.105Z,100560.20
2023-02-28T07:09:52.967Z,100562.85
2023-02-28T07:12:21.535Z,100565.70
2023-02-28T07:14:49.017Z,100562.56
2023-02-28T07:17:16.318Z,100559.53
2023-02-28T07:19:44.256Z,100557.86
2023-02-28T07:27:00.444Z,100552.58
2023-02-28T07:29:27.322Z,100554.81
2023-02-28T07:31:55.115Z,100558.33
2023-02-28T07:34:22.460Z,100553.86
2023-02-28T07:36:54.942Z,100553.52
2023-02-28T07:39:22.233Z,100552.83
2023-02-28T07:41:49.237Z,100552.95
2023-02-28T07:44:16.354Z,100553.48
2023-02-28T07:46:43.279Z,100555.16
2023-02-28T07:49:10.130Z,100560.38
2023-02-28T07:51:37.583Z,100565.62
2023-02-28T07:54:05.435Z,100562.15
2023-02-28T07:56:33.108Z,100565.30
2023-02-28T07:59:00.046Z,100566.58
2023-02-28T08:01:27.604Z,100563.58
2023-02-28T08:08:45.466Z,100555.17
2023-02-28T08:11:12.904Z,100559.48
2023-02-28T08:13:39.635Z,100559.08
2023-02-28T08:16:10.784Z,100559.09
2023-02-28T08:18:38.340Z,100557.31
2023-02-28T08:21:11.360Z,100559.84
2023-02-28T08:23:40.843Z,100559.80
2023-02-28T08:26:07.842Z,100561.35
2023-02-28T08:28:34.664Z,100560.98
2023-02-28T08:31:01.578Z,100555.89
2023-02-28T08:33:28.688Z,100550.38
2023-02-28T08:35:56.298Z,100551.89
2023-02-28T08:38:23.769Z,100555.58
2023-02-28T08:40:51.114Z,100556.86
2023-02-28T08:43:18.365Z,100554.16
2023-02-28T08:45:45.644Z,100552.83
2023-02-28T08:48:13.923Z,100548.36
2023-02-28T08:50:46.449Z,100543.20
2023-02-28T08:53:15.939Z,100548.70
2023-02-28T08:55:42.862Z,100551.23
2023-02-28T08:58:10.759Z,100553.20
2023-02-28T09:00:37.583Z,100552.23
2023-02-28T09:03:06.167Z,100554.05
2023-02-28T09:05:33.671Z,100546.49
2023-02-28T09:08:06.717Z,100543.44
2023-02-28T09:10:33.647Z,100540.02
2023-02-28T09:13:00.468Z,100537.27
2023-02-28T09:15:27.562Z,100542.25
2023-02-28T09:17:54.549Z,100544.01
2023-02-28T09:20:26.196Z,100542.58
2023-02-28T09:22:53.201Z,100539.45
2023-02-28T09:25:20.151Z,100541.02
2023-02-28T09:27:47.412Z,100538.62
2023-02-28T09:30:14.498Z,100537.48
2023-02-28T09:32:41.589Z,100536.95
2023-02-28T09:35:13.816Z,100531.06
2023-02-28T09:37:40.982Z,100529.27
2023-02-28T09:40:10.171Z,100527.94
2023-02-28T09:42:37.045Z,100524.39
2023-02-28T09:45:07.882Z,100519.09
2023-02-28T09:47:45.726Z,100519.73
2023-02-28T09:50:24.381Z,100512.94
2023-02-28T09:52:51.410Z,100507.71
2023-02-28T09:55:32.746Z,100500.28
2023-02-28T09:58:02.233Z,100500.20
2023-02-28T10:00:38.359Z,100493.06
2023-02-28T10:03:27.283Z,100491.33
2023-02-28T10:06:17.796Z,100483.95
2023-02-28T10:09:15.643Z,100484.64
2023-02-28T10:14:17.252Z,100477.76
2023-02-28T10:16:54.342Z,100475.58
2023-02-28T10:19:24.576Z,100470.77
2023-02-28T10:21:59.645Z,100465.63
2023-02-28T10:24:26.557Z,100466.90
2023-02-28T10:27:06.579Z,100468.48
2023-02-28T10:29:33.905Z,100464.95
2023-02-28T10:32:01.741Z,100464.97
2023-02-28T10:34:28.648Z,100461.80
2023-02-28T10:36:55.639Z,100464.40
2023-02-28T10:39:46.801Z,100462.46
2023-02-28T10:42:19.638Z,100459.00
2023-02-28T10:44:49.171Z,100451.77
2023-02-28T10:47:19.368Z,100446.83
2023-02-28T10:49:49.797Z,100442.77
2023-02-28T10:52:39.664Z,100443.91
2023-02-28T10:55:25.725Z,100449.42
2023-02-28T10:57:52.941Z,100447.63
2023-02-28T11:00:25.774Z,100443.23
2023-02-28T11:02:52.715Z,100438.52
2023-02-28T11:05:28.300Z,100433.79
2023-02-28T11:07:57.790Z,100428.48
2023-02-28T11:10:27.168Z,100432.09
2023-02-28T11:12:58.196Z,100423.34
2023-02-28T11:15:31.477Z,100421.15
2023-02-28T11:18:13.439Z,100420.06
2023-02-28T11:20:40.868Z,100425.74
2023-02-28T11:23:12.509Z,100426.48
2023-02-28T11:25:39.980Z,100422.45
2023-02-28T11:28:36.236Z,100417.80
2023-02-28T11:31:12.544Z,100417.85
2023-02-28T11:33:47.843Z,100414.36
2023-02-28T11:36:25.889Z,100411.33
2023-02-28T11:39:08.847Z,100414.41
2023-02-28T11:42:13.320Z,100415.41
2023-02-28T11:44:55.504Z,100413.04
2023-02-28T11:47:28.388Z,100407.75
2023-02-28T11:49:55.333Z,100403.76
2023-02-28T11:52:29.747Z,100401.69
2023-02-28T11:55:08.935Z,100402.54
2023-02-28T11:58:04.972Z,100400.98
2023-02-28T12:00:45.433Z,100407.16
2023-02-28T12:03:29.301Z,100408.30
2023-02-28T12:06:10.295Z,100403.71
2023-02-28T12:08:52.322Z,100400.10
2023-02-28T12:11:41.045Z,100394.20
2023-02-28T12:14:30.090Z,100394.16
2023-02-28T12:17:01.751Z,100388.52
2023-02-28T12:19:36.402Z,100389.80
2023-02-28T12:22:11.717Z,100389.98
2023-02-28T12:25:06.733Z,100382.16
2023-02-28T12:31:44.589Z,100379.70
2023-02-28T12:34:14.573Z,100376.55
2023-02-28T12:36:42.169Z,100374.66
2023-02-28T12:39:18.494Z,100375.64
2023-02-28T12:41:47.534Z,100373.13
2023-02-28T12:44:18.723Z,100375.88
2023-02-28T12:46:50.419Z,100369.79
2023-02-28T12:49:34.896Z,100369.67
2023-02-28T12:52:02.707Z,100365.30
2023-02-28T12:54:37.919Z,100362.30
2023-02-28T12:57:17.906Z,100356.52
2023-02-28T12:59:57.151Z,100355.70
2023-02-28T13:03:02.017Z,100351.61
2023-02-28T13:05:40.064Z,100349.09
2023-02-28T13:08:44.847Z,100344.76
2023-02-28T13:11:26.935Z,100343.07
2023-02-28T13:14:07.234Z,100339.15
2023-02-28T13:17:02.698Z,100335.71
2023-02-28T13:19:31.770Z,100336.65
2023-02-28T13:22:00.834Z,100332.71
2023-02-28T13:24:43.386Z,100331.58
2023-02-28T13:27:30.515Z,100329.34
2023-02-28T13:30:00.539Z,100328.30
2023-02-28T13:32:34.321Z,100325.67
2023-02-28T13:35:39.743Z,100319.39
2023-02-28T13:38:17.350Z,100317.55
2023-02-28T13:40:46.785Z,100315.55
2023-02-28T13:43:22.608Z,100311.13
2023-02-28T13:46:12.690Z,100311.02
2023-02-28T13:48:41.855Z,100307.69
2023-02-28T13:52:27.715Z,100304.39
2023-02-28T13:55:39.407Z,100302.88
2023-02-28T13:59:19.453Z,100298.65
2023-02-28T14:02:28.419Z,100299.93
2023-02-28T14:05:01.219Z,100291.91
2023-02-28T14:12:38.421Z,100290.67
2023-02-28T14:15:46.958Z,100286.88
2023-02-28T14:18:59.398Z,100283.13
2023-02-28T14:29:49.319Z,100268.83
2023-02-28T14:32:41.153Z,100267.92
2023-02-28T14:35:26.672Z,100264.68
2023-02-28T14:37:54.505Z,100261.80
2023-02-28T14:40:24.430Z,100257.80
2023-02-28T14:42:56.644Z,100253.83
2023-02-28T14:45:23.405Z,100247.39
2023-02-28T14:47:51.137Z,100246.61
2023-02-28T14:50:25.156Z,100247.05
2023-02-28T14:52:56.176Z,100243.88
2023-02-28T14:55:30.841Z,100234.91
2023-02-28T14:58:06.943Z,100239.11
2023-02-28T15:00:35.245Z,100232.58
2023-02-28T15:03:21.306Z,100233.69
2023-02-28T15:05:55.636Z,100233.02
2023-02-28T15:08:23.280Z,100226.04
2023-02-28T15:11:05.122Z,100225.74
2023-02-28T15:13:49.808Z,100226.34
2023-02-28T15:16:18.954Z,100229.85
2023-02-28T15:19:06.073Z,100232.21
2023-02-28T15:21:38.581Z,100236.50
2023-02-28T15:24:14.029Z,100233.13
2023-02-28T15:26:46.567Z,100231.94
2023-02-28T15:29:19.757Z,100224.87
2023-02-28T15:32:03.519Z,100218.33
2023-02-28T15:34:42.638Z,100215.64
2023-02-28T15:37:27.024Z,100219.16
2023-02-28T15:39:55.295Z,100217.88
2023-02-28T15:42:23.424Z,100225.18
2023-02-28T15:44:50.764Z,100231.77
2023-02-28T15:47:26.747Z,100236.36
2023-02-28T15:49:54.299Z,100235.71
2023-02-28T15:52:35.345Z,100239.54
2023-02-28T15:55:27.500Z,100242.45
2023-02-28T15:57:55.767Z,100244.37
2023-02-28T16:00:24.439Z,100246.44
2023-02-28T16:02:51.311Z,100248.20
2023-02-28T16:05:38.879Z,100253.16
2023-02-28T16:08:14.922Z,100260.15
2023-02-28T16:10:44.397Z,100260.55
2023-02-28T16:13:12.934Z,100260.77
2023-02-28T16:15:44.835Z,100266.39
2023-02-28T16:18:12.448Z,100258.87
2023-02-28T16:20:39.224Z,100259.64
2023-02-28T16:23:05.949Z,100259.94
2023-02-28T16:25:38.618Z,100264.04
2023-02-28T16:28:18.929Z,100262.92
2023-02-28T16:30:45.649Z,100262.71
2023-02-28T16:33:13.422Z,100259.54
2023-02-28T16:35:40.506Z,100255.52
2023-02-28T16:38:07.575Z,100257.01
2023-02-28T16:40:35.986Z,100253.30
2023-02-28T16:43:06.802Z,100258.49
2023-02-28T16:45:34.131Z,100260.05
2023-02-28T16:48:01.099Z,100258.14
2023-02-28T16:50:30.007Z,100262.23
2023-02-28T16:52:56.847Z,100255.73
2023-02-28T16:55:24.148Z,100253.91
2023-02-28T16:57:55.816Z,100254.21
2023-02-28T17:00:23.044Z,100250.87
2023-02-28T17:02:49.926Z,100247.84
2023-02-28T17:05:17.752Z,100249.31
2023-02-28T17:07:44.977Z,100249.12
2023-02-28T17:10:22.335Z,100245.27
2023-02-28T17:12:49.647Z,100247.83
2023-02-28T17:15:18.060Z,100246.41
2023-02-28T17:17:45.298Z,100244.30
2023-02-28T17:20:17.482Z,100243.23
2023-02-28T17:22:44.184Z,100241.78
2023-02-28T17:25:11.009Z,100233.42
2023-02-28T17:27:38.352Z,100228.16
2023-02-28T17:30:26.061Z,100230.67
2023-02-28T17:32:55.832Z,100231.45
2023-02-28T17:35:23.318Z,100229.80
2023-02-28T17:37:51.250Z,100224.92
2023-02-28T17:40:23.055Z,100221.05
2023-02-28T17:42:52.564Z,100226.28
2023-02-28T17:45:20.245Z,100235.65
2023-02-28T17:47:49.114Z,100237.96
2023-02-28T17:50:20.620Z,100240.63
2023-02-28T17:52:47.428Z,100241.55
2023-02-28T17:55:14.139Z,100240.37
2023-02-28T17:57:42.233Z,100247.34
2023-02-28T18:00:16.204Z,100247.61
2023-02-28T18:02:44.171Z,100246.53
2023-02-28T18:05:10.898Z,100249.05
2023-02-28T18:07:38.709Z,100252.08
2023-02-28T18:10:19.826Z,100252.34
2023-02-28T18:12:49.239Z,100250.89
2023-02-28T18:15:17.118Z,100253.73
2023-02-28T18:17:46.496Z,100262.61
2023-02-28T18:20:13.197Z,100264.91
2023-02-28T18:22:40.659Z,100260.67
2023-02-28T18:25:08.747Z,100254.46
2023-02-28T18:27:36.009Z,100251.75
2023-02-28T18:30:04.506Z,100250.61
2023-02-28T18:32:31.660Z,100254.44
2023-02-28T18:35:00.919Z,100252.44
2023-02-28T18:37:27.838Z,100257.52
2023-02-28T18:39:54.947Z,100258.10
2023-02-28T18:42:22.864Z,100250.60
2023-02-28T18:44:49.996Z,100245.38
2023-02-28T18:47:18.010Z,100242.92
2023-02-28T18:49:44.990Z,100236.83
2023-02-28T18:52:15.717Z,100236.45
2023-02-28T18:54:42.915Z,100239.80
2023-02-28T18:57:09.568Z,100236.80
2023-02-28T18:59:37.231Z,100241.17
2023-02-28T19:02:03.982Z,100250.20
2023-02-28T19:04:31.384Z,100247.49
2023-02-28T19:06:59.664Z,100241.37
2023-02-28T19:09:26.597Z,100235.42
2023-02-28T19:11:53.240Z,100231.34
2023-02-28T19:14:21.392Z,100235.68
2023-02-28T19:16:49.652Z,100231.77
2023-02-28T19:19:16.716Z,100232.19
2023-02-28T19:21:44.491Z,100226.38
2023-02-28T19:24:12.008Z,100214.70
2023-02-28T19:26:38.912Z,100214.38
2023-02-28T19:29:06.417Z,100207.00
2023-02-28T19:31:33.297Z,100204.63
2023-02-28T19:34:01.211Z,100198.48
2023-02-28T19:36:28.339Z,100196.23
2023-02-28T19:38:55.616Z,100194.49
2023-02-28T19:41:23.744Z,100197.07
2023-02-28T19:43:51.904Z,100201.55
2023-02-28T19:46:21.211Z,100202.79
2023-02-28T19:48:48.265Z,100203.51
2023-02-28T19:53:47.935Z,100213.02
2023-02-28T19:56:14.819Z,100202.52
2023-02-28T19:58:41.890Z,100199.23
2023-02-28T20:01:17.809Z,100195.13
2023-02-28T20:03:49.741Z,100202.55
2023-02-28T20:06:16.484Z,100193.14
2023-02-28T20:08:44.165Z,100191.98
2023-02-28T20:11:15.264Z,100187.50
2023-02-28T20:13:42.203Z,100189.70
2023-02-28T20:16:10.143Z,100186.44
2023-02-28T20:18:38.012Z,100183.02
2023-02-28T20:21:07.078Z,100183.77
2023-02-28T20:23:38.186Z,100181.76
2023-02-28T20:26:05.274Z,100184.93
2023-02-28T20:28:32.048Z,100185.65
2023-02-28T20:31:00.018Z,100181.54
2023-02-28T20:33:27.180Z,100183.42
2023-02-28T20:36:01.471Z,100182.05
2023-02-28T20:38:28.738Z,100184.66
2023-02-28T20:41:00.156Z,100186.39
2023-02-28T20:43:29.450Z,100184.86
2023-02-28T20:45:58.181Z,100185.41
2023-02-28T20:48:26.326Z,100179.94
2023-02-28T20:50:54.273Z,100176.69
2023-02-28T20:53:21.607Z,100175.69
2023-02-28T20:55:55.161Z,100172.80
2023-02-28T20:58:21.915Z,100177.14
2023-02-28T21:00:48.604Z,100173.75
2023-02-28T21:03:15.522Z,100176.35
2023-02-28T21:05:42.433Z,100173.80
2023-02-28T21:08:10.172Z,100166.58
2023-02-28T21:10:38.531Z,100164.02
2023-02-28T21:13:06.060Z,100167.25
2023-02-28T21:15:37.072Z,100161.05
2023-02-28T21:18:03.827Z,100149.19
2023-02-28T21:20:30.705Z,100143.70
2023-02-28T21:22:57.827Z,100144.95
2023-02-28T21:25:25.478Z,100135.33
2023-02-28T21:27:55.069Z,100133.76
2023-02-28T21:30:21.942Z,100128.78
2023-02-28T21:32:49.146Z,100126.52
2023-02-28T21:35:15.913Z,100123.75
2023-02-28T21:37:43.540Z,100120.29
2023-02-28T21:40:16.321Z,100122.84
2023-02-28T21:42:43.365Z,100118.00
2023-02-28T21:45:10.585Z,100118.13
2023-02-28T21:47:37.564Z,100112.61
2023-02-28T21:50:04.520Z,100112.08
2023-02-28T21:52:32.829Z,100102.23
2023-02-28T21:54:59.788Z,100106.84
2023-02-28T21:57:31.598Z,100105.09
2023-02-28T21:59:58.500Z,100101.44
2023-02-28T22:02:25.360Z,100098.31
2023-02-28T22:04:52.252Z,100097.80
2023-02-28T22:07:19.201Z,100088.19
2023-02-28T22:09:47.399Z,100088.60
2023-02-28T22:12:14.723Z,100087.77
2023-02-28T22:14:41.679Z,100086.09
2023-02-28T22:17:08.514Z,100085.45
2023-02-28T22:19:36.503Z,100086.23
2023-02-28T22:22:03.438Z,100078.89
2023-02-28T22:24:30.358Z,100075.65
2023-02-28T22:26:57.913Z,100071.32
2023-02-28T22:29:24.589Z,100070.30
2023-02-28T22:31:51.393Z,100068.61
2023-02-28T22:34:19.695Z,100065.92
2023-02-28T22:36:46.870Z,100061.29
2023-02-28T22:39:13.595Z,100065.58
2023-02-28T22:41:41.533Z,100068.35
2023-02-28T22:44:10.094Z,100068.08
2023-02-28T22:46:37.845Z,100070.54
2023-02-28T22:49:05.001Z,100075.06
2023-02-28T22:51:33.969Z,100073.38
2023-02-28T22:54:01.459Z,100066.03
2023-02-28T22:56:30.089Z,100064.70
2023-02-28T22:58:58.260Z,100068.18
2023-02-28T23:01:26.519Z,100069.92
2023-02-28T23:03:53.956Z,100072.85
2023-02-28T23:06:26.430Z,100077.32
2023-02-28T23:08:56.573Z,100074.91
2023-02-28T23:11:34.360Z,100074.18
2023-02-28T23:14:02.067Z,100071.81
2023-02-28T23:16:40.195Z,100073.70
2023-02-28T23:19:13.405Z,100068.61
2023-02-28T23:21:41.193Z,100065.73
2023-02-28T23:24:11.308Z,100064.42
2023-02-28T23:26:41.120Z,100058.81
2023-02-28T23:29:08.313Z,100053.88
2023-02-28T23:31:36.035Z,100053.21
2023-02-28T23:34:02.839Z,100043.79
2023-02-28T23:36:31.784Z,100043.30
2023-02-28T23:38:59.289Z,100036.05
2023-02-28T23:41:25.984Z,100030.18
2023-02-28T23:43:52.804Z,100027.27
2023-02-28T23:46:19.569Z,100031.20
2023-02-28T23:48:46.335Z,100028.77
2023-02-28T23:51:18.615Z,100026.55
2023-02-28T23:53:48.246Z,100018.27
2023-02-28T23:56:17.863Z,100015.48
2023-02-28T23:58:47.540Z,100024.92
